This is the latest recevied weather packets stored in our database for station/object W4MJZ-1. If no packets are shown the sender has not sent any weather packets the latest 10 day(s).
| Time | Temp. | Humidity | Pressure | Rain* | Wind** | Luminosity | Snow |
|---|---|---|---|---|---|---|---|
| 1777537144 | 17.78° C | 23% | 1020.7 hPa | 0 mm | - | - | - |
| 1777537039 | 17.78° C | 23% | 1020.7 hPa | 0 mm | - | - | - |
| 1777536831 | 18.33° C | 23% | 1020.7 hPa | 0 mm | - | - | - |
| 1777536739 | 17.78° C | 23% | 1020.7 hPa | 0 mm | - | - | - |
| 1777536440 | 18.33° C | 23% | 1020.7 hPa | 0 mm | - | - | - |
| 1777536237 | 18.89° C | 22% | 1021.5 hPa | 0 mm | - | - | - |
| 1777536139 | 18.33° C | 23% | 1021.1 hPa | 0 mm | - | - | - |
| 1777535962 | 18.89° C | 22% | 1021.5 hPa | 0 mm | - | - | - |
| 1777535839 | 18.89° C | 22% | 1021.5 hPa | 0 mm | - | - | - |
| 1777535564 | 18.89° C | 22% | 1021.5 hPa | 0 mm | - | - | - |
| 1777535539 | 18.89° C | 22% | 1021.5 hPa | 0 mm | - | - | - |
| 1777535238 | 18.89° C | 22% | 1021.5 hPa | 0 mm | - | - | - |
| 1777535237 | 18.89° C | 22% | 1021.8 hPa | 0 mm | - | - | - |
| 1777534939 | 18.89° C | 22% | 1021.8 hPa | 0 mm | - | - | - |
| 1777534639 | 18.89° C | 22% | 1021.5 hPa | 0 mm | - | - | - |
| 1777534339 | 18.89° C | 22% | 1021.5 hPa | 0 mm | - | - | - |
| 1777534137 | 18.89° C | 23% | 1021.5 hPa | 0 mm | - | - | - |
| 1777534039 | 18.89° C | 23% | 1021.5 hPa | 0 mm | - | - | - |
| 1777533739 | 18.89° C | 23% | 1021.5 hPa | 0 mm | - | - | - |
| 1777533440 | 18.89° C | 22% | 1021.5 hPa | 0 mm | - | - | - |
| 1777533138 | 18.89° C | 22% | 1021.5 hPa | 0 mm | - | - | - |
| 1777532839 | 19.44° C | 22% | 1021.5 hPa | 0 mm | - | - | - |
| 1777532628 | 19.44° C | 22% | 1021.5 hPa | 0 mm | - | - | - |
| 1777532539 | 19.44° C | 22% | 1021.5 hPa | 0 mm | - | - | - |
| 1777532344 | 19.44° C | 22% | 1021.5 hPa | 0 mm | - | - | - |
* Rain latest hour (hover to see other rain measurements)
** Current wind speed in m/s (hover to see current wind gust speed)